KFME

Details ICAO KFME (FME)
Name TIPTON
Region United States
Timezone America/New_York (UTC-5.0)
Plans Departing 15
Arriving 3
Stats Elevation 150 ft / 46 m (AMSL)
Location 39.085251° -76.759547°
Runways 1
Magnetic Variation 11.034° W
Sunrise 2017-12-18 12:22:26 UTC / 2017-12-18 07:22:26 Local
Sunset 2017-12-18 21:47:46 UTC / 2017-12-18 16:47:46 Local
Advertisement - Login to hide

Runways

ID Width Length Bearing (true) Bearing (mag) Surface Threshold Offset Overrun Length
10 75 ft / 23 m 2,994 ft / 912 m 93.94° 104.97° Asphalt 0 ft / 0 m 300 ft / 91 m
28 75 ft / 23 m 2,994 ft / 912 m 273.95° 284.98° Asphalt 0 ft / 0 m 500 ft / 152 m

Map

Weather


0- 5 10 15 20 25 30 35+ Temperature / ° C

Clouds and Precipitation
Forecast for 2017-12-18 18:00 UTC. Updated an hour ago

Ground ~20,000 ft ~40,000 ft Winds

METAR

KFME 181824Z AUTO 26008KT 10SM CLR 12/02 A3004 RMK AO1

TAF

Not found

Frequencies

Recorded 123.92 MHz AWOS 3
Approach 119.70 MHz POTOMAC APP DEP
Unicom 123.05 MHz CTAF/UNICOM
Warning: Do not use this data for real-world aviation or navigation. No guarantee of current accuracy is given.